sensor_id;sensor_type;location;lat;lon;timestamp;P1;durP1;ratioP1;P2;durP2;ratioP2
76310;SDS011;65120;59.304;18.294;2023-05-02T00:01:53;8.05;;;2.45;;
76310;SDS011;65120;59.304;18.294;2023-05-02T00:04:20;9.65;;;1.90;;
76310;SDS011;65120;59.304;18.294;2023-05-02T00:06:49;7.00;;;2.03;;
76310;SDS011;65120;59.304;18.294;2023-05-02T00:09:17;7.80;;;1.85;;
76310;SDS011;65120;59.304;18.294;2023-05-02T00:11:44;7.95;;;1.98;;
76310;SDS011;65120;59.304;18.294;2023-05-02T00:14:11;7.13;;;2.35;;
76310;SDS011;65120;59.304;18.294;2023-05-02T00:16:38;3.13;;;1.20;;
76310;SDS011;65120;59.304;18.294;2023-05-02T00:19:04;3.95;;;0.80;;
76310;SDS011;65120;59.304;18.294;2023-05-02T00:21:32;2.25;;;0.50;;
76310;SDS011;65120;59.304;18.294;2023-05-02T00:24:00;1.15;;;0.28;;
76310;SDS011;65120;59.304;18.294;2023-05-02T00:26:27;3.20;;;0.30;;
76310;SDS011;65120;59.304;18.294;2023-05-02T00:28:54;0.20;;;0.20;;
76310;SDS011;65120;59.304;18.294;2023-05-02T00:31:21;0.20;;;0.10;;
76310;SDS011;65120;59.304;18.294;2023-05-02T00:33:47;0.20;;;0.20;;
76310;SDS011;65120;59.304;18.294;2023-05-02T00:36:14;0.20;;;0.10;;
76310;SDS011;65120;59.304;18.294;2023-05-02T00:38:42;0.85;;;0.13;;
76310;SDS011;65120;59.304;18.294;2023-05-02T00:41:11;0.30;;;0.10;;
76310;SDS011;65120;59.304;18.294;2023-05-02T00:43:38;0.10;;;0.00;;
76310;SDS011;65120;59.304;18.294;2023-05-02T00:46:05;0.80;;;0.00;;
76310;SDS011;65120;59.304;18.294;2023-05-02T00:48:32;0.00;;;0.00;;
76310;SDS011;65120;59.304;18.294;2023-05-02T00:51:01;0.00;;;0.00;;
76310;SDS011;65120;59.304;18.294;2023-05-02T00:53:30;1.35;;;0.00;;
76310;SDS011;65120;59.304;18.294;2023-05-02T00:55:57;0.00;;;0.00;;
76310;SDS011;65120;59.304;18.294;2023-05-02T00:58:25;0.00;;;0.00;;
76310;SDS011;65120;59.304;18.294;2023-05-02T01:00:58;0.00;;;0.00;;
76310;SDS011;65120;59.304;18.294;2023-05-02T01:03:35;0.00;;;0.00;;
76310;SDS011;65120;59.304;18.294;2023-05-02T01:06:10;0.00;;;0.00;;
76310;SDS011;65120;59.304;18.294;2023-05-02T01:08:51;1.08;;;0.05;;
76310;SDS011;65120;59.304;18.294;2023-05-02T01:11:27;0.00;;;0.00;;
76310;SDS011;65120;59.304;18.294;2023-05-02T01:14:04;0.05;;;0.00;;
76310;SDS011;65120;59.304;18.294;2023-05-02T01:16:34;0.00;;;0.00;;
76310;SDS011;65120;59.304;18.294;2023-05-02T01:19:07;0.00;;;0.00;;
76310;SDS011;65120;59.304;18.294;2023-05-02T01:21:38;0.10;;;0.00;;
76310;SDS011;65120;59.304;18.294;2023-05-02T01:24:06;0.00;;;0.00;;
76310;SDS011;65120;59.304;18.294;2023-05-02T01:26:40;0.00;;;0.00;;
76310;SDS011;65120;59.304;18.294;2023-05-02T01:29:17;0.95;;;0.28;;
76310;SDS011;65120;59.304;18.294;2023-05-02T01:31:47;0.00;;;0.00;;
76310;SDS011;65120;59.304;18.294;2023-05-02T01:34:16;0.00;;;0.00;;
76310;SDS011;65120;59.304;18.294;2023-05-02T01:36:46;0.00;;;0.00;;
76310;SDS011;65120;59.304;18.294;2023-05-02T01:39:17;0.10;;;0.00;;
76310;SDS011;65120;59.304;18.294;2023-05-02T01:41:47;0.10;;;0.00;;
76310;SDS011;65120;59.304;18.294;2023-05-02T01:44:19;0.00;;;0.00;;
76310;SDS011;65120;59.304;18.294;2023-05-02T01:46:48;0.00;;;0.00;;
76310;SDS011;65120;59.304;18.294;2023-05-02T01:49:17;0.00;;;0.00;;
76310;SDS011;65120;59.304;18.294;2023-05-02T01:51:46;0.00;;;0.00;;
76310;SDS011;65120;59.304;18.294;2023-05-02T01:54:15;0.13;;;0.10;;
76310;SDS011;65120;59.304;18.294;2023-05-02T01:56:43;0.57;;;0.00;;
76310;SDS011;65120;59.304;18.294;2023-05-02T01:59:11;0.00;;;0.00;;
76310;SDS011;65120;59.304;18.294;2023-05-02T02:01:43;0.13;;;0.10;;
76310;SDS011;65120;59.304;18.294;2023-05-02T02:04:12;0.00;;;0.00;;
76310;SDS011;65120;59.304;18.294;2023-05-02T02:06:41;0.10;;;0.00;;
76310;SDS011;65120;59.304;18.294;2023-05-02T02:09:12;0.10;;;0.00;;
76310;SDS011;65120;59.304;18.294;2023-05-02T02:11:41;0.00;;;0.00;;
76310;SDS011;65120;59.304;18.294;2023-05-02T02:14:13;0.00;;;0.00;;
76310;SDS011;65120;59.304;18.294;2023-05-02T02:16:46;0.00;;;0.00;;
76310;SDS011;65120;59.304;18.294;2023-05-02T02:19:16;0.00;;;0.00;;
76310;SDS011;65120;59.304;18.294;2023-05-02T02:21:44;0.22;;;0.03;;
76310;SDS011;65120;59.304;18.294;2023-05-02T02:24:14;0.10;;;0.00;;
76310;SDS011;65120;59.304;18.294;2023-05-02T02:26:43;0.00;;;0.00;;
76310;SDS011;65120;59.304;18.294;2023-05-02T02:29:10;0.05;;;0.00;;
76310;SDS011;65120;59.304;18.294;2023-05-02T02:31:37;0.00;;;0.00;;
76310;SDS011;65120;59.304;18.294;2023-05-02T02:34:06;0.00;;;0.00;;
76310;SDS011;65120;59.304;18.294;2023-05-02T02:36:33;0.10;;;0.00;;
76310;SDS011;65120;59.304;18.294;2023-05-02T02:39:11;0.10;;;0.00;;
76310;SDS011;65120;59.304;18.294;2023-05-02T02:41:49;0.10;;;0.00;;
76310;SDS011;65120;59.304;18.294;2023-05-02T02:44:30;0.08;;;0.00;;
76310;SDS011;65120;59.304;18.294;2023-05-02T02:47:05;0.10;;;0.00;;
76310;SDS011;65120;59.304;18.294;2023-05-02T02:49:42;0.00;;;0.00;;
76310;SDS011;65120;59.304;18.294;2023-05-02T02:52:16;0.25;;;0.00;;
76310;SDS011;65120;59.304;18.294;2023-05-02T02:54:49;0.10;;;0.00;;
76310;SDS011;65120;59.304;18.294;2023-05-02T02:57:22;0.28;;;0.00;;
76310;SDS011;65120;59.304;18.294;2023-05-02T03:00:10;0.20;;;0.10;;
76310;SDS011;65120;59.304;18.294;2023-05-02T03:02:41;0.50;;;0.10;;
76310;SDS011;65120;59.304;18.294;2023-05-02T03:05:12;0.00;;;0.00;;
76310;SDS011;65120;59.304;18.294;2023-05-02T03:07:40;0.10;;;0.00;;
76310;SDS011;65120;59.304;18.294;2023-05-02T03:10:07;0.10;;;0.10;;
76310;SDS011;65120;59.304;18.294;2023-05-02T03:12:35;0.10;;;0.00;;
76310;SDS011;65120;59.304;18.294;2023-05-02T03:15:08;0.25;;;0.00;;
76310;SDS011;65120;59.304;18.294;2023-05-02T03:17:49;0.10;;;0.00;;
76310;SDS011;65120;59.304;18.294;2023-05-02T03:20:17;0.00;;;0.00;;
76310;SDS011;65120;59.304;18.294;2023-05-02T03:22:44;0.00;;;0.00;;
76310;SDS011;65120;59.304;18.294;2023-05-02T03:25:11;0.10;;;0.00;;
76310;SDS011;65120;59.304;18.294;2023-05-02T03:27:38;0.10;;;0.00;;
76310;SDS011;65120;59.304;18.294;2023-05-02T03:30:06;1.25;;;0.08;;
76310;SDS011;65120;59.304;18.294;2023-05-02T03:32:34;0.70;;;0.08;;
76310;SDS011;65120;59.304;18.294;2023-05-02T03:35:01;1.30;;;0.00;;
76310;SDS011;65120;59.304;18.294;2023-05-02T03:37:29;0.40;;;0.00;;
76310;SDS011;65120;59.304;18.294;2023-05-02T03:39:56;0.38;;;0.00;;
76310;SDS011;65120;59.304;18.294;2023-05-02T03:42:23;0.00;;;0.00;;
76310;SDS011;65120;59.304;18.294;2023-05-02T03:44:50;1.30;;;0.00;;
76310;SDS011;65120;59.304;18.294;2023-05-02T03:47:18;0.32;;;0.00;;
76310;SDS011;65120;59.304;18.294;2023-05-02T03:49:45;0.63;;;0.00;;
76310;SDS011;65120;59.304;18.294;2023-05-02T03:52:12;0.10;;;0.10;;
76310;SDS011;65120;59.304;18.294;2023-05-02T03:54:40;1.38;;;0.00;;
76310;SDS011;65120;59.304;18.294;2023-05-02T03:57:07;0.30;;;0.00;;
76310;SDS011;65120;59.304;18.294;2023-05-02T03:59:34;0.05;;;0.00;;
76310;SDS011;65120;59.304;18.294;2023-05-02T04:02:05;0.00;;;0.00;;
76310;SDS011;65120;59.304;18.294;2023-05-02T04:04:32;0.10;;;0.00;;
76310;SDS011;65120;59.304;18.294;2023-05-02T04:07:00;0.00;;;0.00;;
76310;SDS011;65120;59.304;18.294;2023-05-02T04:09:27;0.00;;;0.00;;
76310;SDS011;65120;59.304;18.294;2023-05-02T04:11:55;0.03;;;0.00;;
76310;SDS011;65120;59.304;18.294;2023-05-02T04:14:22;0.00;;;0.00;;
76310;SDS011;65120;59.304;18.294;2023-05-02T04:16:49;0.20;;;0.00;;
76310;SDS011;65120;59.304;18.294;2023-05-02T04:19:16;2.90;;;0.00;;
76310;SDS011;65120;59.304;18.294;2023-05-02T04:21:44;0.10;;;0.00;;
76310;SDS011;65120;59.304;18.294;2023-05-02T04:24:11;0.00;;;0.00;;
76310;SDS011;65120;59.304;18.294;2023-05-02T04:26:39;0.10;;;0.08;;
76310;SDS011;65120;59.304;18.294;2023-05-02T04:29:07;0.00;;;0.00;;
76310;SDS011;65120;59.304;18.294;2023-05-02T04:31:34;0.55;;;0.00;;
76310;SDS011;65120;59.304;18.294;2023-05-02T04:34:01;0.10;;;0.10;;
76310;SDS011;65120;59.304;18.294;2023-05-02T04:36:29;0.00;;;0.00;;
76310;SDS011;65120;59.304;18.294;2023-05-02T04:38:56;0.03;;;0.03;;
76310;SDS011;65120;59.304;18.294;2023-05-02T04:41:23;0.30;;;0.00;;
76310;SDS011;65120;59.304;18.294;2023-05-02T04:43:50;0.13;;;0.10;;
76310;SDS011;65120;59.304;18.294;2023-05-02T04:46:18;1.35;;;0.05;;
76310;SDS011;65120;59.304;18.294;2023-05-02T04:48:45;0.00;;;0.00;;
76310;SDS011;65120;59.304;18.294;2023-05-02T04:51:12;0.05;;;0.05;;
76310;SDS011;65120;59.304;18.294;2023-05-02T04:53:39;0.00;;;0.00;;
76310;SDS011;65120;59.304;18.294;2023-05-02T04:56:06;0.10;;;0.10;;
76310;SDS011;65120;59.304;18.294;2023-05-02T04:58:33;0.10;;;0.10;;
76310;SDS011;65120;59.304;18.294;2023-05-02T05:01:00;0.10;;;0.10;;
76310;SDS011;65120;59.304;18.294;2023-05-02T05:03:28;0.00;;;0.00;;
76310;SDS011;65120;59.304;18.294;2023-05-02T05:05:57;0.10;;;0.03;;
76310;SDS011;65120;59.304;18.294;2023-05-02T05:08:24;1.27;;;0.10;;
76310;SDS011;65120;59.304;18.294;2023-05-02T05:10:51;0.10;;;0.10;;
76310;SDS011;65120;59.304;18.294;2023-05-02T05:13:18;0.00;;;0.00;;
76310;SDS011;65120;59.304;18.294;2023-05-02T05:15:46;0.10;;;0.05;;
76310;SDS011;65120;59.304;18.294;2023-05-02T05:18:13;0.10;;;0.10;;
76310;SDS011;65120;59.304;18.294;2023-05-02T05:20:41;0.28;;;0.10;;
76310;SDS011;65120;59.304;18.294;2023-05-02T05:23:08;0.10;;;0.10;;
76310;SDS011;65120;59.304;18.294;2023-05-02T05:25:35;0.15;;;0.15;;
76310;SDS011;65120;59.304;18.294;2023-05-02T05:28:02;0.10;;;0.10;;
76310;SDS011;65120;59.304;18.294;2023-05-02T05:30:29;0.20;;;0.10;;
76310;SDS011;65120;59.304;18.294;2023-05-02T05:32:56;0.10;;;0.10;;
76310;SDS011;65120;59.304;18.294;2023-05-02T05:35:23;0.10;;;0.10;;
76310;SDS011;65120;59.304;18.294;2023-05-02T05:37:52;0.65;;;0.10;;
76310;SDS011;65120;59.304;18.294;2023-05-02T05:40:19;0.30;;;0.20;;
76310;SDS011;65120;59.304;18.294;2023-05-02T05:42:46;0.73;;;0.13;;
76310;SDS011;65120;59.304;18.294;2023-05-02T05:45:13;0.30;;;0.10;;
76310;SDS011;65120;59.304;18.294;2023-05-02T05:47:41;1.05;;;0.20;;
76310;SDS011;65120;59.304;18.294;2023-05-02T05:50:08;0.35;;;0.10;;
76310;SDS011;65120;59.304;18.294;2023-05-02T05:52:35;0.30;;;0.20;;
76310;SDS011;65120;59.304;18.294;2023-05-02T05:55:04;3.95;;;0.22;;
76310;SDS011;65120;59.304;18.294;2023-05-02T05:57:31;0.40;;;0.20;;
76310;SDS011;65120;59.304;18.294;2023-05-02T05:59:58;0.85;;;0.30;;
76310;SDS011;65120;59.304;18.294;2023-05-02T06:02:25;0.38;;;0.20;;
76310;SDS011;65120;59.304;18.294;2023-05-02T06:04:52;0.40;;;0.20;;
76310;SDS011;65120;59.304;18.294;2023-05-02T06:07:19;0.70;;;0.25;;
76310;SDS011;65120;59.304;18.294;2023-05-02T06:09:46;1.05;;;0.30;;
76310;SDS011;65120;59.304;18.294;2023-05-02T06:12:14;0.80;;;0.70;;
76310;SDS011;65120;59.304;18.294;2023-05-02T06:14:41;0.30;;;0.30;;
76310;SDS011;65120;59.304;18.294;2023-05-02T06:17:08;0.55;;;0.30;;
76310;SDS011;65120;59.304;18.294;2023-05-02T06:19:35;0.40;;;0.22;;
76310;SDS011;65120;59.304;18.294;2023-05-02T06:22:02;0.43;;;0.28;;
76310;SDS011;65120;59.304;18.294;2023-05-02T06:24:29;0.40;;;0.30;;
76310;SDS011;65120;59.304;18.294;2023-05-02T06:26:56;0.30;;;0.20;;
76310;SDS011;65120;59.304;18.294;2023-05-02T06:29:25;3.35;;;0.30;;
76310;SDS011;65120;59.304;18.294;2023-05-02T06:31:53;0.70;;;0.30;;
76310;SDS011;65120;59.304;18.294;2023-05-02T06:34:21;0.40;;;0.30;;
76310;SDS011;65120;59.304;18.294;2023-05-02T06:36:48;0.45;;;0.45;;
76310;SDS011;65120;59.304;18.294;2023-05-02T06:39:19;0.85;;;0.28;;
76310;SDS011;65120;59.304;18.294;2023-05-02T06:41:46;0.30;;;0.20;;
76310;SDS011;65120;59.304;18.294;2023-05-02T06:44:13;0.73;;;0.30;;
76310;SDS011;65120;59.304;18.294;2023-05-02T06:46:41;0.30;;;0.30;;
76310;SDS011;65120;59.304;18.294;2023-05-02T06:49:08;0.43;;;0.30;;
76310;SDS011;65120;59.304;18.294;2023-05-02T06:51:35;1.55;;;0.20;;
76310;SDS011;65120;59.304;18.294;2023-05-02T06:54:02;2.83;;;0.30;;
76310;SDS011;65120;59.304;18.294;2023-05-02T06:56:29;0.28;;;0.20;;
76310;SDS011;65120;59.304;18.294;2023-05-02T06:58:56;0.20;;;0.20;;
76310;SDS011;65120;59.304;18.294;2023-05-02T07:01:23;0.35;;;0.20;;
76310;SDS011;65120;59.304;18.294;2023-05-02T07:03:51;0.60;;;0.20;;
76310;SDS011;65120;59.304;18.294;2023-05-02T07:06:18;0.30;;;0.20;;
76310;SDS011;65120;59.304;18.294;2023-05-02T07:08:45;0.40;;;0.20;;
76310;SDS011;65120;59.304;18.294;2023-05-02T07:11:12;0.30;;;0.20;;
76310;SDS011;65120;59.304;18.294;2023-05-02T07:13:39;2.08;;;0.20;;
76310;SDS011;65120;59.304;18.294;2023-05-02T07:16:07;0.60;;;0.20;;
76310;SDS011;65120;59.304;18.294;2023-05-02T07:18:34;1.45;;;0.20;;
76310;SDS011;65120;59.304;18.294;2023-05-02T07:21:02;0.22;;;0.20;;
76310;SDS011;65120;59.304;18.294;2023-05-02T07:23:29;2.38;;;0.20;;
76310;SDS011;65120;59.304;18.294;2023-05-02T07:25:56;0.20;;;0.17;;
76310;SDS011;65120;59.304;18.294;2023-05-02T07:28:23;0.30;;;0.20;;
76310;SDS011;65120;59.304;18.294;2023-05-02T07:30:50;0.73;;;0.30;;
76310;SDS011;65120;59.304;18.294;2023-05-02T07:33:17;0.68;;;0.20;;
76310;SDS011;65120;59.304;18.294;2023-05-02T07:35:44;0.30;;;0.20;;
76310;SDS011;65120;59.304;18.294;2023-05-02T07:38:12;0.35;;;0.10;;
76310;SDS011;65120;59.304;18.294;2023-05-02T07:40:39;0.30;;;0.30;;
76310;SDS011;65120;59.304;18.294;2023-05-02T07:43:07;0.30;;;0.20;;
76310;SDS011;65120;59.304;18.294;2023-05-02T07:45:34;0.28;;;0.20;;
76310;SDS011;65120;59.304;18.294;2023-05-02T07:48:01;0.25;;;0.20;;
76310;SDS011;65120;59.304;18.294;2023-05-02T07:50:29;0.80;;;0.10;;
76310;SDS011;65120;59.304;18.294;2023-05-02T07:52:55;1.90;;;0.17;;
76310;SDS011;65120;59.304;18.294;2023-05-02T07:55:24;0.10;;;0.10;;
76310;SDS011;65120;59.304;18.294;2023-05-02T07:57:51;0.10;;;0.10;;
76310;SDS011;65120;59.304;18.294;2023-05-02T08:00:18;0.40;;;0.10;;
76310;SDS011;65120;59.304;18.294;2023-05-02T08:02:45;0.20;;;0.10;;
76310;SDS011;65120;59.304;18.294;2023-05-02T08:05:12;0.10;;;0.08;;
76310;SDS011;65120;59.304;18.294;2023-05-02T08:07:39;1.17;;;0.20;;
76310;SDS011;65120;59.304;18.294;2023-05-02T08:10:07;1.00;;;0.47;;
76310;SDS011;65120;59.304;18.294;2023-05-02T08:12:38;1.13;;;0.10;;
76310;SDS011;65120;59.304;18.294;2023-05-02T08:15:05;0.20;;;0.10;;
76310;SDS011;65120;59.304;18.294;2023-05-02T08:17:33;0.30;;;0.10;;
76310;SDS011;65120;59.304;18.294;2023-05-02T08:20:00;0.17;;;0.10;;
76310;SDS011;65120;59.304;18.294;2023-05-02T08:22:27;0.15;;;0.10;;
76310;SDS011;65120;59.304;18.294;2023-05-02T08:24:53;0.45;;;0.25;;
76310;SDS011;65120;59.304;18.294;2023-05-02T08:27:20;0.28;;;0.17;;
76310;SDS011;65120;59.304;18.294;2023-05-02T08:29:48;0.70;;;0.10;;
76310;SDS011;65120;59.304;18.294;2023-05-02T08:32:15;0.20;;;0.10;;
76310;SDS011;65120;59.304;18.294;2023-05-02T08:34:42;0.20;;;0.10;;
76310;SDS011;65120;59.304;18.294;2023-05-02T08:37:09;0.15;;;0.05;;
76310;SDS011;65120;59.304;18.294;2023-05-02T08:39:36;0.10;;;0.10;;
76310;SDS011;65120;59.304;18.294;2023-05-02T08:42:05;0.28;;;0.10;;
76310;SDS011;65120;59.304;18.294;2023-05-02T08:44:32;0.17;;;0.10;;
76310;SDS011;65120;59.304;18.294;2023-05-02T08:47:00;0.10;;;0.10;;
76310;SDS011;65120;59.304;18.294;2023-05-02T08:49:28;0.75;;;0.10;;
76310;SDS011;65120;59.304;18.294;2023-05-02T08:51:57;0.55;;;0.10;;
76310;SDS011;65120;59.304;18.294;2023-05-02T08:54:26;0.93;;;0.10;;
76310;SDS011;65120;59.304;18.294;2023-05-02T08:56:53;0.10;;;0.10;;
76310;SDS011;65120;59.304;18.294;2023-05-02T08:59:23;0.20;;;0.10;;
76310;SDS011;65120;59.304;18.294;2023-05-02T09:01:51;0.20;;;0.10;;
76310;SDS011;65120;59.304;18.294;2023-05-02T09:04:26;0.63;;;0.20;;
76310;SDS011;65120;59.304;18.294;2023-05-02T09:06:56;0.20;;;0.10;;
76310;SDS011;65120;59.304;18.294;2023-05-02T09:09:23;0.30;;;0.20;;
76310;SDS011;65120;59.304;18.294;2023-05-02T09:11:50;0.30;;;0.20;;
76310;SDS011;65120;59.304;18.294;2023-05-02T09:14:18;4.90;;;0.40;;
76310;SDS011;65120;59.304;18.294;2023-05-02T09:16:45;0.35;;;0.10;;
76310;SDS011;65120;59.304;18.294;2023-05-02T09:19:22;0.28;;;0.17;;
76310;SDS011;65120;59.304;18.294;2023-05-02T09:21:51;0.20;;;0.20;;
76310;SDS011;65120;59.304;18.294;2023-05-02T09:24:24;0.88;;;0.20;;
76310;SDS011;65120;59.304;18.294;2023-05-02T09:26:57;1.85;;;0.20;;
76310;SDS011;65120;59.304;18.294;2023-05-02T09:29:26;1.45;;;0.30;;
76310;SDS011;65120;59.304;18.294;2023-05-02T09:31:55;0.60;;;0.17;;
76310;SDS011;65120;59.304;18.294;2023-05-02T09:34:22;0.30;;;0.13;;
76310;SDS011;65120;59.304;18.294;2023-05-02T09:36:49;1.80;;;0.20;;
76310;SDS011;65120;59.304;18.294;2023-05-02T09:39:20;1.95;;;0.20;;
76310;SDS011;65120;59.304;18.294;2023-05-02T09:41:48;1.15;;;0.20;;
76310;SDS011;65120;59.304;18.294;2023-05-02T09:44:16;0.32;;;0.20;;
76310;SDS011;65120;59.304;18.294;2023-05-02T09:46:44;2.97;;;0.20;;
76310;SDS011;65120;59.304;18.294;2023-05-02T09:49:11;0.30;;;0.30;;
76310;SDS011;65120;59.304;18.294;2023-05-02T09:51:42;1.17;;;0.25;;
76310;SDS011;65120;59.304;18.294;2023-05-02T09:54:12;1.40;;;0.20;;
76310;SDS011;65120;59.304;18.294;2023-05-02T09:56:51;0.38;;;0.20;;
76310;SDS011;65120;59.304;18.294;2023-05-02T09:59:20;0.77;;;0.20;;
76310;SDS011;65120;59.304;18.294;2023-05-02T10:01:53;3.17;;;0.30;;
76310;SDS011;65120;59.304;18.294;2023-05-02T10:04:21;0.30;;;0.20;;
76310;SDS011;65120;59.304;18.294;2023-05-02T10:06:48;1.48;;;0.28;;
76310;SDS011;65120;59.304;18.294;2023-05-02T10:09:18;0.30;;;0.20;;
76310;SDS011;65120;59.304;18.294;2023-05-02T10:11:46;0.60;;;0.30;;
76310;SDS011;65120;59.304;18.294;2023-05-02T10:14:15;0.20;;;0.20;;
76310;SDS011;65120;59.304;18.294;2023-05-02T10:16:46;0.70;;;0.30;;
76310;SDS011;65120;59.304;18.294;2023-05-02T10:19:22;5.75;;;0.20;;
76310;SDS011;65120;59.304;18.294;2023-05-02T10:21:53;1.45;;;0.30;;
76310;SDS011;65120;59.304;18.294;2023-05-02T10:24:22;2.53;;;0.30;;
76310;SDS011;65120;59.304;18.294;2023-05-02T10:26:51;1.38;;;0.30;;
76310;SDS011;65120;59.304;18.294;2023-05-02T10:29:18;0.60;;;0.20;;
76310;SDS011;65120;59.304;18.294;2023-05-02T10:31:46;1.52;;;0.20;;
76310;SDS011;65120;59.304;18.294;2023-05-02T10:34:14;2.85;;;0.20;;
76310;SDS011;65120;59.304;18.294;2023-05-02T10:36:43;0.68;;;0.30;;
76310;SDS011;65120;59.304;18.294;2023-05-02T10:39:11;0.30;;;0.20;;
76310;SDS011;65120;59.304;18.294;2023-05-02T10:41:39;1.95;;;0.20;;
76310;SDS011;65120;59.304;18.294;2023-05-02T10:44:08;2.75;;;0.52;;
76310;SDS011;65120;59.304;18.294;2023-05-02T10:46:36;2.88;;;0.20;;
76310;SDS011;65120;59.304;18.294;2023-05-02T10:49:05;1.35;;;0.30;;
76310;SDS011;65120;59.304;18.294;2023-05-02T10:51:33;0.82;;;0.52;;
76310;SDS011;65120;59.304;18.294;2023-05-02T10:54:20;0.82;;;0.20;;
76310;SDS011;65120;59.304;18.294;2023-05-02T10:57:05;2.38;;;0.30;;
76310;SDS011;65120;59.304;18.294;2023-05-02T10:59:34;1.35;;;0.20;;
76310;SDS011;65120;59.304;18.294;2023-05-02T11:02:02;0.57;;;0.20;;
76310;SDS011;65120;59.304;18.294;2023-05-02T11:07:25;0.75;;;0.15;;
76310;SDS011;65120;59.304;18.294;2023-05-02T11:09:52;1.05;;;0.20;;
76310;SDS011;65120;59.304;18.294;2023-05-02T11:15:13;0.90;;;0.20;;
76310;SDS011;65120;59.304;18.294;2023-05-02T11:17:58;0.80;;;0.15;;
76310;SDS011;65120;59.304;18.294;2023-05-02T11:20:26;1.45;;;0.30;;
76310;SDS011;65120;59.304;18.294;2023-05-02T11:22:57;0.47;;;0.20;;
76310;SDS011;65120;59.304;18.294;2023-05-02T11:25:46;1.25;;;0.20;;
76310;SDS011;65120;59.304;18.294;2023-05-02T11:31:09;0.60;;;0.20;;
76310;SDS011;65120;59.304;18.294;2023-05-02T11:33:56;0.40;;;0.20;;
76310;SDS011;65120;59.304;18.294;2023-05-02T11:36:26;2.70;;;0.30;;
76310;SDS011;65120;59.304;18.294;2023-05-02T11:38:54;2.15;;;0.30;;
76310;SDS011;65120;59.304;18.294;2023-05-02T11:41:21;2.60;;;0.20;;
76310;SDS011;65120;59.304;18.294;2023-05-02T11:43:50;0.57;;;0.20;;
76310;SDS011;65120;59.304;18.294;2023-05-02T11:46:28;0.30;;;0.10;;
76310;SDS011;65120;59.304;18.294;2023-05-02T11:48:55;2.33;;;0.30;;
76310;SDS011;65120;59.304;18.294;2023-05-02T11:51:22;0.47;;;0.28;;
76310;SDS011;65120;59.304;18.294;2023-05-02T11:53:49;1.33;;;0.30;;
76310;SDS011;65120;59.304;18.294;2023-05-02T11:56:16;0.60;;;0.20;;
76310;SDS011;65120;59.304;18.294;2023-05-02T11:58:57;0.68;;;0.22;;
76310;SDS011;65120;59.304;18.294;2023-05-02T12:01:25;0.57;;;0.30;;
76310;SDS011;65120;59.304;18.294;2023-05-02T12:04:00;0.80;;;0.20;;
76310;SDS011;65120;59.304;18.294;2023-05-02T12:09:04;0.45;;;0.20;;
76310;SDS011;65120;59.304;18.294;2023-05-02T12:11:32;0.17;;;0.17;;
76310;SDS011;65120;59.304;18.294;2023-05-02T12:14:00;0.43;;;0.20;;
76310;SDS011;65120;59.304;18.294;2023-05-02T12:16:27;4.22;;;0.20;;
76310;SDS011;65120;59.304;18.294;2023-05-02T12:18:55;0.50;;;0.13;;
76310;SDS011;65120;59.304;18.294;2023-05-02T12:21:23;0.52;;;0.20;;
76310;SDS011;65120;59.304;18.294;2023-05-02T12:23:52;0.35;;;0.20;;
76310;SDS011;65120;59.304;18.294;2023-05-02T12:26:20;1.17;;;0.20;;
76310;SDS011;65120;59.304;18.294;2023-05-02T12:28:49;0.63;;;0.30;;
76310;SDS011;65120;59.304;18.294;2023-05-02T12:31:20;0.20;;;0.20;;
76310;SDS011;65120;59.304;18.294;2023-05-02T12:33:47;2.45;;;0.15;;
76310;SDS011;65120;59.304;18.294;2023-05-02T12:36:16;0.30;;;0.20;;
76310;SDS011;65120;59.304;18.294;2023-05-02T12:38:46;0.35;;;0.13;;
76310;SDS011;65120;59.304;18.294;2023-05-02T12:41:15;0.13;;;0.10;;
76310;SDS011;65120;59.304;18.294;2023-05-02T12:43:44;0.10;;;0.10;;
76310;SDS011;65120;59.304;18.294;2023-05-02T12:46:12;1.15;;;0.10;;
76310;SDS011;65120;59.304;18.294;2023-05-02T12:48:40;0.20;;;0.10;;
76310;SDS011;65120;59.304;18.294;2023-05-02T12:51:21;0.63;;;0.10;;
76310;SDS011;65120;59.304;18.294;2023-05-02T12:53:48;0.22;;;0.10;;
76310;SDS011;65120;59.304;18.294;2023-05-02T12:56:15;0.98;;;0.00;;
76310;SDS011;65120;59.304;18.294;2023-05-02T12:58:43;0.10;;;0.03;;
76310;SDS011;65120;59.304;18.294;2023-05-02T13:01:11;0.47;;;0.10;;
76310;SDS011;65120;59.304;18.294;2023-05-02T13:03:40;0.10;;;0.10;;
76310;SDS011;65120;59.304;18.294;2023-05-02T13:06:08;0.55;;;0.10;;
76310;SDS011;65120;59.304;18.294;2023-05-02T13:08:35;0.20;;;0.10;;
76310;SDS011;65120;59.304;18.294;2023-05-02T13:11:02;0.95;;;0.10;;
76310;SDS011;65120;59.304;18.294;2023-05-02T13:13:29;0.52;;;0.10;;
76310;SDS011;65120;59.304;18.294;2023-05-02T13:15:56;0.50;;;0.10;;
76310;SDS011;65120;59.304;18.294;2023-05-02T13:18:23;3.33;;;0.10;;
76310;SDS011;65120;59.304;18.294;2023-05-02T13:20:53;0.70;;;0.10;;
76310;SDS011;65120;59.304;18.294;2023-05-02T13:23:20;0.82;;;0.13;;
76310;SDS011;65120;59.304;18.294;2023-05-02T13:25:47;2.90;;;0.35;;
76310;SDS011;65120;59.304;18.294;2023-05-02T13:28:14;0.25;;;0.10;;
76310;SDS011;65120;59.304;18.294;2023-05-02T13:30:40;0.52;;;0.10;;
76310;SDS011;65120;59.304;18.294;2023-05-02T13:33:07;0.40;;;0.10;;
76310;SDS011;65120;59.304;18.294;2023-05-02T13:35:34;0.13;;;0.10;;
76310;SDS011;65120;59.304;18.294;2023-05-02T13:38:03;0.20;;;0.10;;
76310;SDS011;65120;59.304;18.294;2023-05-02T13:40:29;0.32;;;0.10;;
76310;SDS011;65120;59.304;18.294;2023-05-02T13:42:56;0.30;;;0.10;;
76310;SDS011;65120;59.304;18.294;2023-05-02T13:45:23;0.65;;;0.10;;
76310;SDS011;65120;59.304;18.294;2023-05-02T13:47:50;3.05;;;0.10;;
76310;SDS011;65120;59.304;18.294;2023-05-02T13:50:17;1.60;;;0.10;;
76310;SDS011;65120;59.304;18.294;2023-05-02T13:52:44;0.20;;;0.10;;
76310;SDS011;65120;59.304;18.294;2023-05-02T13:55:12;0.40;;;0.10;;
76310;SDS011;65120;59.304;18.294;2023-05-02T13:57:39;0.32;;;0.32;;
76310;SDS011;65120;59.304;18.294;2023-05-02T14:00:06;0.45;;;0.10;;
76310;SDS011;65120;59.304;18.294;2023-05-02T14:02:34;1.52;;;0.10;;
76310;SDS011;65120;59.304;18.294;2023-05-02T14:05:01;0.20;;;0.10;;
76310;SDS011;65120;59.304;18.294;2023-05-02T14:07:28;0.10;;;0.10;;
76310;SDS011;65120;59.304;18.294;2023-05-02T14:09:55;0.88;;;0.10;;
76310;SDS011;65120;59.304;18.294;2023-05-02T14:12:24;1.63;;;0.03;;
76310;SDS011;65120;59.304;18.294;2023-05-02T14:14:50;3.42;;;0.10;;
76310;SDS011;65120;59.304;18.294;2023-05-02T14:17:17;0.30;;;0.03;;
76310;SDS011;65120;59.304;18.294;2023-05-02T14:19:45;0.00;;;0.00;;
76310;SDS011;65120;59.304;18.294;2023-05-02T14:22:12;0.50;;;0.00;;
76310;SDS011;65120;59.304;18.294;2023-05-02T14:24:39;0.82;;;0.30;;
76310;SDS011;65120;59.304;18.294;2023-05-02T14:27:06;3.30;;;0.00;;
76310;SDS011;65120;59.304;18.294;2023-05-02T14:29:38;0.60;;;0.10;;
76310;SDS011;65120;59.304;18.294;2023-05-02T14:32:05;0.65;;;0.10;;
76310;SDS011;65120;59.304;18.294;2023-05-02T14:34:32;0.20;;;0.00;;
76310;SDS011;65120;59.304;18.294;2023-05-02T14:36:59;0.20;;;0.10;;
76310;SDS011;65120;59.304;18.294;2023-05-02T14:39:26;0.20;;;0.10;;
76310;SDS011;65120;59.304;18.294;2023-05-02T14:41:53;0.57;;;0.13;;
76310;SDS011;65120;59.304;18.294;2023-05-02T14:44:19;0.10;;;0.00;;
76310;SDS011;65120;59.304;18.294;2023-05-02T14:46:48;2.08;;;0.10;;
76310;SDS011;65120;59.304;18.294;2023-05-02T14:49:15;0.10;;;0.00;;
76310;SDS011;65120;59.304;18.294;2023-05-02T14:51:42;1.85;;;0.10;;
76310;SDS011;65120;59.304;18.294;2023-05-02T14:54:11;1.48;;;0.08;;